Time;durP1;ratioP1;P1;durP2;ratioP2;P2;SDS_P1;SDS_P2;PMS_P1;PMS_P2;Temp;Humidity;BMP_temperature;BMP_pressure;BME280_temperature;BME280_humidity;BME280_pressure;Samples;Min_cycle;Max_cycle;Signal;HPM_P1;HPM_P2
2022/02/16 00:00:11;;;;;;;99.75;47.20;;;;;;;3.20;75.78;99973.73;1629175;88;25662;-73
2022/02/16 00:02:40;;;;;;;98.17;49.03;;;;;;;3.16;76.13;99964.12;1629237;88;25426;-73
2022/02/16 00:05:11;;;;;;;106.83;47.85;;;;;;;3.17;76.49;99968.95;1629230;88;25779;-73
2022/02/16 00:07:41;;;;;;;99.42;48.98;;;;;;;3.15;76.59;99973.22;1629253;88;28049;-73
2022/02/16 00:10:11;;;;;;;99.52;48.25;;;;;;;3.15;76.76;99971.89;1629310;88;25585;-73
2022/02/16 00:12:39;;;;;;;97.37;45.80;;;;;;;3.16;77.14;99966.00;1629271;88;25644;-73
2022/02/16 00:15:08;;;;;;;98.60;47.85;;;;;;;3.18;77.39;99967.86;1629455;88;25715;-74
2022/02/16 00:17:36;;;;;;;97.73;47.67;;;;;;;3.22;77.51;99972.96;1629466;88;25652;-73
2022/02/16 00:20:09;;;;;;;94.45;46.77;;;;;;;3.23;77.67;99965.19;1629271;88;27320;-73
2022/02/16 00:22:36;;;;;;;93.90;45.38;;;;;;;3.24;77.54;99969.48;1629148;88;25430;-73
2022/02/16 00:25:03;;;;;;;94.47;47.65;;;;;;;3.25;77.83;99964.41;1629297;88;25752;-74
2022/02/16 00:27:30;;;;;;;89.22;45.75;;;;;;;3.27;77.89;99971.63;1629147;88;25597;-74
2022/02/16 00:29:56;;;;;;;98.67;48.05;;;;;;;3.29;77.97;99967.34;1629334;88;25770;-73
2022/02/16 00:32:23;;;;;;;99.20;46.73;;;;;;;3.32;78.06;99964.94;1629264;88;27956;-74
2022/02/16 00:34:49;;;;;;;86.10;44.98;;;;;;;3.33;78.04;99963.05;1629205;88;25829;-73
2022/02/16 00:37:16;;;;;;;81.32;42.85;;;;;;;3.36;78.39;99962.52;1629232;88;25469;-74
2022/02/16 00:39:42;;;;;;;86.60;42.83;;;;;;;3.40;78.65;99960.11;1629201;88;25657;-74
2022/02/16 00:42:09;;;;;;;80.07;39.85;;;;;;;3.43;78.91;99959.03;1650551;85;25558;-73
2022/02/16 00:44:35;;;;;;;92.40;44.55;;;;;;;3.48;78.94;99955.02;1659672;85;27405;-74
2022/02/16 00:47:02;;;;;;;80.70;41.23;;;;;;;3.52;78.74;99948.59;1659619;86;25654;-73
2022/02/16 00:49:28;;;;;;;87.47;45.85;;;;;;;3.56;78.72;99942.98;1659509;86;25656;-73
2022/02/16 00:51:55;;;;;;;86.57;43.65;;;;;;;3.60;78.37;99937.89;1659560;86;25684;-73
2022/02/16 00:54:21;;;;;;;92.95;46.60;;;;;;;3.61;78.55;99932.27;1659557;85;25432;-73
2022/02/16 00:56:47;;;;;;;82.50;43.33;;;;;;;3.64;78.33;99930.91;1659645;85;27860;-72
2022/02/16 00:59:14;;;;;;;80.87;43.55;;;;;;;3.64;78.56;99922.89;1659451;86;25637;-73
2022/02/16 01:01:40;;;;;;;79.10;42.08;;;;;;;3.66;78.73;99927.42;1659579;85;25736;-73
2022/02/16 01:04:06;;;;;;;86.97;44.08;;;;;;;3.67;78.74;99931.17;1659575;86;25629;-73
2022/02/16 01:06:33;;;;;;;81.75;43.87;;;;;;;3.69;79.14;99936.25;1659582;85;25681;-73
2022/02/16 01:08:59;;;;;;;84.95;44.63;;;;;;;3.69;79.09;99929.02;1642498;86;27329;-74
2022/02/16 01:11:26;;;;;;;85.07;44.95;;;;;;;3.71;78.95;99922.06;1659431;86;25424;-74
2022/02/16 01:13:52;;;;;;;80.75;44.18;;;;;;;3.71;78.97;99920.20;1659681;86;25649;-73
2022/02/16 01:16:18;;;;;;;81.05;43.80;;;;;;;3.69;78.66;99910.84;1659450;85;25700;-73
2022/02/16 01:18:44;;;;;;;84.47;43.33;;;;;;;3.66;78.86;99908.19;1659292;85;25730;-74
2022/02/16 01:21:12;;;;;;;79.77;42.23;;;;;;;3.65;78.91;99901.22;1658265;85;27323;-73
2022/02/16 01:23:38;;;;;;;74.27;39.18;;;;;;;3.64;78.99;99902.28;1658901;85;26398;-72
2022/02/16 01:26:05;;;;;;;77.97;40.52;;;;;;;3.65;79.11;99895.08;1659585;85;25769;-72
2022/02/16 01:28:31;;;;;;;77.90;43.02;;;;;;;3.65;79.28;99888.39;1642421;86;25727;-71
2022/02/16 01:30:57;;;;;;;81.20;42.38;;;;;;;3.64;79.12;99888.91;1642444;86;25490;-73
2022/02/16 01:33:23;;;;;;;83.75;39.30;;;;;;;3.62;79.08;99886.26;1659542;85;27900;-73
2022/02/16 01:35:50;;;;;;;80.30;38.88;;;;;;;3.61;79.00;99885.98;1659532;85;25724;-73
2022/02/16 01:38:16;;;;;;;78.15;39.78;;;;;;;3.59;78.75;99878.77;1642385;86;25670;-73
2022/02/16 01:40:43;;;;;;;74.10;39.70;;;;;;;3.57;78.93;99878.25;1659538;86;25705;-72
2022/02/16 01:43:09;;;;;;;82.17;43.05;;;;;;;3.55;78.97;99871.29;1651982;85;25482;-74
2022/02/16 01:45:35;;;;;;;79.20;42.03;;;;;;;3.54;79.09;99872.37;1651937;86;27307;-73
2022/02/16 01:48:02;;;;;;;74.82;41.23;;;;;;;3.52;79.07;99872.37;1640497;86;25715;-74
2022/02/16 01:50:28;;;;;;;67.50;38.50;;;;;;;3.49;79.01;99875.59;1651915;86;25597;-73
2022/02/16 01:52:55;;;;;;;72.82;40.38;;;;;;;3.45;79.26;99873.20;1651914;86;25710;-74
2022/02/16 01:55:22;;;;;;;78.67;42.38;;;;;;;3.42;79.50;99868.39;1651945;86;25504;-73
2022/02/16 01:57:50;;;;;;;75.25;40.12;;;;;;;3.39;79.37;99868.41;1651934;86;27323;-72
2022/02/16 02:00:16;;;;;;;76.53;41.30;;;;;;;3.35;79.45;99862.81;1651807;86;25652;-73
2022/02/16 02:02:43;;;;;;;78.22;42.08;;;;;;;3.32;79.40;99865.20;1651911;86;25450;-73
2022/02/16 02:05:11;;;;;;;80.35;40.20;;;;;;;3.28;79.57;99859.59;1651880;86;25624;-73
2022/02/16 02:07:40;;;;;;;71.50;36.85;;;;;;;3.25;79.58;99859.34;1652017;86;25662;-74
2022/02/16 02:10:08;;;;;;;74.40;38.20;;;;;;;3.20;79.75;99853.45;1651591;86;27893;-73
2022/02/16 02:12:47;;;;;;;71.15;36.35;;;;;;;3.20;79.73;99853.45;1651338;86;25915;-74
2022/02/16 02:15:14;;;;;;;70.10;35.45;;;;;;;3.16;79.90;99848.40;1651788;86;25747;-74
2022/02/16 02:17:41;;;;;;;72.90;35.38;;;;;;;3.14;80.31;99845.99;1651787;86;25618;-74
2022/02/16 02:20:26;;;;;;;74.32;37.23;;;;;;;3.14;80.39;99845.20;1651725;86;25489;-74
2022/02/16 02:22:54;;;;;;;69.92;36.38;;;;;;;3.15;80.44;99844.11;1651717;86;27368;-73
2022/02/16 02:25:21;;;;;;;66.85;33.92;;;;;;;3.14;80.80;99833.17;1651875;86;25755;-73
2022/02/16 02:27:47;;;;;;;70.57;36.60;;;;;;;3.13;80.80;99833.72;1652031;86;25566;-72
2022/02/16 02:30:15;;;;;;;72.58;34.50;;;;;;;3.13;80.83;99833.72;1652034;86;25674;-72
2022/02/16 02:32:44;;;;;;;69.60;36.58;;;;;;;3.13;80.82;99832.38;1652153;86;25447;-73
2022/02/16 02:35:14;;;;;;;73.75;37.30;;;;;;;3.14;80.68;99834.52;1652508;86;27331;-72
2022/02/16 02:37:42;;;;;;;71.65;36.58;;;;;;;3.14;80.87;99825.95;1652569;86;25634;-72
2022/02/16 02:40:10;;;;;;;73.72;35.90;;;;;;;3.16;80.87;99828.36;1652756;86;25574;-72
2022/02/16 02:42:39;;;;;;;64.20;33.38;;;;;;;3.13;80.71;99827.04;1652947;86;25672;-72
2022/02/16 02:45:08;;;;;;;66.90;37.00;;;;;;;3.14;80.66;99829.16;1653233;86;25189;-72
2022/02/16 02:47:35;;;;;;;65.42;35.78;;;;;;;3.14;80.44;99825.95;1653089;86;27498;-73
2022/02/16 02:50:03;;;;;;;69.77;37.50;;;;;;;3.13;80.35;99826.22;1652045;86;25508;-75
2022/02/16 02:52:31;;;;;;;76.95;37.55;;;;;;;3.11;80.69;99826.48;1652131;86;25597;-74
2022/02/16 02:54:59;;;;;;;64.87;36.93;;;;;;;3.07;80.55;99819.30;1652123;86;25759;-74
2022/02/16 02:57:25;;;;;;;71.00;37.48;;;;;;;3.05;80.36;99822.75;1652156;86;25580;-73
2022/02/16 02:59:51;;;;;;;71.20;37.53;;;;;;;3.02;80.27;99823.31;1640706;86;27417;-73
2022/02/16 03:02:18;;;;;;;72.12;38.35;;;;;;;2.94;80.50;99814.75;1652062;86;25571;-73
2022/02/16 03:04:45;;;;;;;74.45;38.13;;;;;;;2.94;80.66;99817.42;1652155;86;25455;-73
2022/02/16 03:07:11;;;;;;;68.50;35.20;;;;;;;2.93;80.77;99816.39;1652101;86;25702;-73
2022/02/16 03:09:38;;;;;;;68.50;37.60;;;;;;;2.90;80.60;99804.90;1652113;86;25455;-73
2022/02/16 03:12:07;;;;;;;69.58;37.48;;;;;;;2.91;80.65;99805.97;1652054;86;27453;-74
2022/02/16 03:14:35;;;;;;;90.20;39.48;;;;;;;2.88;80.68;99799.82;1652236;86;25674;-73
2022/02/16 03:17:01;;;;;;;73.75;38.30;;;;;;;2.86;80.74;99803.81;1652131;86;25683;-73
2022/02/16 03:19:28;;;;;;;81.22;39.75;;;;;;;2.82;80.90;99794.20;1652103;86;26212;-73
2022/02/16 03:21:54;;;;;;;73.05;37.23;;;;;;;2.79;80.91;99790.73;1652085;86;25313;-73
2022/02/16 03:24:21;;;;;;;71.75;36.98;;;;;;;2.77;80.86;99784.87;1652143;86;27450;-72
2022/02/16 03:26:48;;;;;;;88.27;69.22;;;;;;;2.72;80.70;99790.22;1652120;86;25465;-72
2022/02/16 03:29:14;;;;;;;71.15;38.80;;;;;;;2.69;80.77;99783.56;1652213;86;25527;-73
2022/02/16 03:31:42;;;;;;;74.15;38.63;;;;;;;2.66;80.73;99775.28;1652037;86;26303;-73
2022/02/16 03:34:09;;;;;;;74.30;39.85;;;;;;;2.62;80.96;99777.66;1652145;86;25461;-73
2022/02/16 03:36:35;;;;;;;79.75;40.10;;;;;;;2.58;81.00;99772.61;1652128;86;27519;-73
2022/02/16 03:39:02;;;;;;;79.15;42.70;;;;;;;2.54;81.24;99776.89;1652078;86;25406;-73
2022/02/16 03:41:28;;;;;;;83.82;43.73;;;;;;;2.50;81.39;99767.26;1652096;86;25644;-73
2022/02/16 03:43:55;;;;;;;78.12;41.40;;;;;;;2.46;81.60;99764.08;1652081;86;25613;-73
2022/02/16 03:46:26;;;;;;;75.00;40.05;;;;;;;2.42;81.95;99762.48;1652088;86;25479;-73
2022/02/16 03:48:52;;;;;;;80.15;39.63;;;;;;;2.40;81.94;99761.92;1652076;86;27343;-73
2022/02/16 03:51:19;;;;;;;77.72;38.83;;;;;;;2.37;82.26;99760.61;1640618;86;25609;-73
2022/02/16 03:53:45;;;;;;;83.62;38.28;;;;;;;2.37;82.46;99763.27;1652180;86;25482;-73
2022/02/16 03:56:12;;;;;;;77.72;39.85;;;;;;;2.38;82.32;99760.06;1652102;86;25642;-73
2022/02/16 03:58:38;;;;;;;74.45;37.17;;;;;;;2.37;82.37;99763.27;1652216;86;25582;-74
2022/02/16 04:01:05;;;;;;;80.07;37.93;;;;;;;2.36;82.38;99760.87;1652121;86;27351;-74
2022/02/16 04:03:32;;;;;;;71.35;37.33;;;;;;;2.36;82.67;99767.00;1652054;86;25605;-73
2022/02/16 04:05:59;;;;;;;76.60;38.00;;;;;;;2.35;82.39;99759.25;1652076;86;25560;-73
2022/02/16 04:08:25;;;;;;;74.53;37.67;;;;;;;2.33;82.91;99760.06;1652077;86;25712;-73
2022/02/16 04:10:52;;;;;;;79.62;37.85;;;;;;;2.32;82.75;99757.94;1652108;86;25612;-73
2022/02/16 04:13:19;;;;;;;79.42;40.83;;;;;;;2.31;82.75;99757.66;1652046;86;27380;-73
2022/02/16 04:15:45;;;;;;;81.28;40.38;;;;;;;2.34;82.95;99762.47;1651939;86;25438;-74
2022/02/16 04:18:12;;;;;;;77.55;38.40;;;;;;;2.34;83.11;99757.13;1652069;86;25487;-73
2022/02/16 04:20:38;;;;;;;78.60;38.33;;;;;;;2.33;82.96;99760.85;1652002;86;25679;-73
2022/02/16 04:23:05;;;;;;;82.65;41.60;;;;;;;2.32;82.99;99758.48;1652115;86;25216;-74
2022/02/16 04:25:32;;;;;;;75.72;40.00;;;;;;;2.32;83.09;99763.27;1652041;86;27338;-74
2022/02/16 04:27:58;;;;;;;80.35;41.70;;;;;;;2.32;82.98;99759.81;1651998;86;25478;-73
2022/02/16 04:30:27;;;;;;;82.40;42.45;;;;;;;2.30;82.92;99761.92;1652115;86;25621;-73
2022/02/16 04:32:53;;;;;;;82.17;41.83;;;;;;;2.29;83.35;99759.80;1652083;86;25650;-73
2022/02/16 04:35:20;;;;;;;79.37;42.17;;;;;;;2.27;83.69;99753.94;1652120;86;25593;-73
2022/02/16 04:37:46;;;;;;;78.72;41.70;;;;;;;2.26;83.99;99752.31;1652003;86;27358;-73
2022/02/16 04:40:16;;;;;;;79.47;41.50;;;;;;;2.27;83.54;99752.59;1651985;86;25448;-73
2022/02/16 04:42:42;;;;;;;72.70;40.23;;;;;;;2.27;83.73;99744.59;1652125;86;25639;-74
2022/02/16 04:45:10;;;;;;;82.70;42.67;;;;;;;2.24;83.81;99743.24;1652118;86;25488;-75
2022/02/16 04:47:37;;;;;;;72.67;40.20;;;;;;;2.24;83.62;99729.90;1652163;86;25653;-75
2022/02/16 04:50:07;;;;;;;85.70;42.65;;;;;;;2.26;83.46;99732.84;1652071;86;27336;-73
2022/02/16 04:52:36;;;;;;;80.15;41.92;;;;;;;2.23;83.70;99728.83;1651966;86;25447;-73
2022/02/16 04:55:10;;;;;;;88.27;43.95;;;;;;;2.23;83.58;99735.50;1652202;86;25257;-73
2022/02/16 04:57:37;;;;;;;88.40;42.17;;;;;;;2.22;83.86;99733.38;1652064;86;25627;-73
2022/02/16 05:00:07;;;;;;;80.65;42.55;;;;;;;2.23;83.44;99727.49;1652064;86;25498;-74
2022/02/16 05:02:34;;;;;;;82.95;40.35;;;;;;;2.21;83.55;99726.97;1652055;86;27355;-74
2022/02/16 05:05:00;;;;;;;81.90;41.48;;;;;;;2.20;83.44;99722.72;1651984;86;25731;-73
2022/02/16 05:07:28;;;;;;;78.80;39.90;;;;;;;2.18;83.71;99721.64;1652076;86;25413;-74
2022/02/16 05:09:55;;;;;;;81.67;41.58;;;;;;;2.19;83.45;99711.77;1652019;86;25619;-73
2022/02/16 05:12:21;;;;;;;82.22;43.58;;;;;;;2.18;83.46;99718.16;1652111;86;25450;-73
2022/02/16 05:14:48;;;;;;;83.33;41.30;;;;;;;2.18;83.62;99718.16;1652043;86;27522;-73
2022/02/16 05:17:15;;;;;;;89.50;45.78;;;;;;;2.17;83.54;99713.91;1652032;86;25675;-74
2022/02/16 05:19:42;;;;;;;85.57;43.08;;;;;;;2.15;83.68;99708.04;1652067;86;25614;-74
2022/02/16 05:22:09;;;;;;;78.75;40.50;;;;;;;2.14;83.69;99707.22;1652029;86;25675;-71
2022/02/16 05:24:36;;;;;;;80.20;40.78;;;;;;;2.12;83.55;99704.02;1652127;86;25504;-73
2022/02/16 05:27:03;;;;;;;81.67;40.65;;;;;;;2.10;83.53;99704.04;1652047;86;27398;-74
2022/02/16 05:29:29;;;;;;;89.30;43.30;;;;;;;2.08;83.46;99696.30;1651994;86;25492;-73
2022/02/16 05:31:56;;;;;;;89.80;43.20;;;;;;;2.06;83.37;99690.44;1652036;86;25656;-74
2022/02/16 05:34:22;;;;;;;85.28;45.08;;;;;;;2.03;83.50;99703.76;1652080;86;25654;-73
2022/02/16 05:36:49;;;;;;;89.10;45.05;;;;;;;2.03;83.61;99698.97;1652085;86;25581;-73
2022/02/16 05:39:15;;;;;;;93.42;46.98;;;;;;;1.99;83.64;99692.03;1652041;86;27434;-74
2022/02/16 05:41:42;;;;;;;85.20;42.35;;;;;;;1.95;83.70;99688.82;1651929;86;25593;-74
2022/02/16 05:44:08;;;;;;;89.87;44.23;;;;;;;1.94;83.80;99689.36;1651966;86;25608;-74
2022/02/16 05:46:35;;;;;;;97.35;46.83;;;;;;;1.91;84.04;99683.22;1640612;86;25626;-74
2022/02/16 05:49:02;;;;;;;89.32;45.63;;;;;;;1.91;83.72;99685.89;1652076;86;25459;-73
2022/02/16 05:51:28;;;;;;;99.15;45.20;;;;;;;1.89;84.00;99685.88;1652055;86;27963;-73
2022/02/16 05:53:55;;;;;;;87.78;44.20;;;;;;;1.85;83.87;99681.60;1651941;86;25689;-73
2022/02/16 05:56:21;;;;;;;93.25;45.20;;;;;;;1.85;84.24;99686.94;1652062;86;25551;-73
2022/02/16 05:58:48;;;;;;;93.03;46.98;;;;;;;1.85;84.11;99682.94;1651992;86;26168;-73
2022/02/16 06:01:14;;;;;;;94.60;46.77;;;;;;;1.85;84.39;99681.06;1652125;86;25631;-73
2022/02/16 06:03:43;;;;;;;100.20;47.60;;;;;;;1.83;84.35;99680.53;1652001;86;27897;-73
2022/02/16 06:06:09;;;;;;;97.22;46.18;;;;;;;1.83;84.56;99678.41;1651934;86;25476;-74
2022/02/16 06:08:35;;;;;;;93.25;49.48;;;;;;;1.82;84.40;99672.80;1652071;86;25448;-74
2022/02/16 06:11:02;;;;;;;97.08;48.90;;;;;;;1.82;84.52;99674.95;1652147;86;25705;-73
2022/02/16 06:13:30;;;;;;;92.67;45.38;;;;;;;1.85;84.76;99680.27;1652171;86;25440;-74
2022/02/16 06:15:56;;;;;;;99.07;47.70;;;;;;;1.83;84.53;99689.87;1652114;86;27492;-73
2022/02/16 06:18:23;;;;;;;93.52;47.17;;;;;;;1.84;84.87;99678.69;1652119;86;25439;-73
2022/02/16 06:20:49;;;;;;;98.50;46.50;;;;;;;1.89;85.23;99677.36;1652124;86;25431;-73
2022/02/16 06:23:16;;;;;;;95.03;44.60;;;;;;;1.92;85.07;99670.67;1652128;86;26196;-74
2022/02/16 06:25:42;;;;;;;89.65;46.83;;;;;;;1.96;84.96;99673.89;1652314;86;25653;-73
2022/02/16 06:28:08;;;;;;;93.05;43.95;;;;;;;2.03;85.09;99673.08;1652570;86;27976;-74
2022/02/16 06:30:35;;;;;;;91.40;43.48;;;;;;;2.10;85.10;99679.48;1652274;86;25275;-73
2022/02/16 06:33:02;;;;;;;92.80;44.73;;;;;;;2.16;85.23;99671.75;1652359;86;25572;-73
2022/02/16 06:35:28;;;;;;;94.00;42.25;;;;;;;2.22;85.00;99669.88;1652295;86;25700;-72
2022/02/16 06:37:55;;;;;;;91.53;41.75;;;;;;;2.28;85.10;99671.45;1652321;86;25634;-73
2022/02/16 06:40:26;;;;;;;95.45;45.10;;;;;;;2.35;85.00;99672.51;1652476;86;28017;-73
2022/02/16 06:42:53;;;;;;;94.50;45.63;;;;;;;2.40;84.80;99671.16;1653035;85;25462;-74
2022/02/16 06:45:20;;;;;;;91.72;47.13;;;;;;;2.45;84.66;99669.03;1660119;85;25486;-72
2022/02/16 06:47:47;;;;;;;95.57;45.50;;;;;;;2.50;84.46;99663.69;1660011;86;25583;-73
2022/02/16 06:50:15;;;;;;;90.17;43.70;;;;;;;2.54;84.31;99669.55;1660008;86;25412;-73
2022/02/16 06:52:43;;;;;;;90.17;44.05;;;;;;;2.60;84.25;99662.32;1660040;85;27601;-73
2022/02/16 06:55:15;;;;;;;101.87;48.17;;;;;;;2.67;84.27;99658.03;1660128;86;25454;-74
2022/02/16 06:57:41;;;;;;;98.47;47.13;;;;;;;2.75;84.08;99662.82;1658394;86;25506;-73
2022/02/16 07:00:10;;;;;;;93.55;43.68;;;;;;;2.83;84.07;99658.77;1660029;86;25624;-74
2022/02/16 07:02:47;;;;;;;92.53;48.13;;;;;;;2.92;83.91;99651.81;1659852;85;25602;-73
2022/02/16 07:05:14;;;;;;;91.47;47.80;;;;;;;3.06;83.76;99654.69;1660107;85;27913;-74
2022/02/16 07:07:41;;;;;;;93.17;45.17;;;;;;;3.25;83.90;99657.02;1659796;86;25665;-73
2022/02/16 07:10:09;;;;;;;96.97;44.08;;;;;;;3.40;83.53;99637.39;1659887;86;25629;-72
2022/02/16 07:12:39;;;;;;;98.50;49.50;;;;;;;3.55;82.99;99639.17;1659800;86;25481;-72
2022/02/16 07:15:11;;;;;;;101.82;47.53;;;;;;;3.68;82.36;99633.75;1659831;86;25674;-73
2022/02/16 07:17:36;;;;;;;93.17;43.60;;;;;;;3.86;82.45;99637.61;1659551;86;27318;-73
2022/02/16 07:20:03;;;;;;;89.03;49.90;;;;;;;4.04;82.08;99636.13;1659793;86;25440;-72
2022/02/16 07:22:30;;;;;;;96.55;46.23;;;;;;;4.23;81.26;99633.00;1659879;86;25412;-73
2022/02/16 07:24:56;;;;;;;89.77;46.00;;;;;;;4.36;80.75;99626.19;1659894;86;25654;-74
2022/02/16 07:27:23;;;;;;;88.42;44.55;;;;;;;4.44;80.58;99626.09;1660051;85;25637;-72
2022/02/16 07:29:49;;;;;;;96.80;45.23;;;;;;;4.57;80.73;99619.27;1695312;83;27330;-73
2022/02/16 07:32:16;;;;;;;82.37;44.38;;;;;;;4.67;80.12;99621.28;1699984;83;25677;-73
2022/02/16 07:34:45;;;;;;;81.20;40.43;;;;;;;4.72;79.37;99604.36;1707288;83;25522;-73
2022/02/16 07:37:12;;;;;;;84.92;43.45;;;;;;;4.78;79.21;99613.92;1681585;84;33106;-73
2022/02/16 07:39:38;;;;;;;82.82;42.08;;;;;;;4.89;79.22;99616.47;1700580;84;25708;-73
2022/02/16 07:42:05;;;;;;;78.40;41.68;;;;;;;4.95;78.35;99610.77;1658810;84;27845;-73
2022/02/16 07:44:32;;;;;;;86.10;42.78;;;;;;;5.08;78.11;99611.95;1702970;84;25611;-74
2022/02/16 07:47:02;;;;;;;85.12;40.83;;;;;;;5.25;78.27;99607.42;1702683;84;25629;-74
2022/02/16 07:49:28;;;;;;;84.05;42.20;;;;;;;5.48;77.20;99616.46;1691222;84;25996;-74
2022/02/16 07:51:54;;;;;;;84.37;43.80;;;;;;;5.68;76.82;99611.89;1696736;83;25668;-73
2022/02/16 07:54:20;;;;;;;80.30;41.20;;;;;;;6.05;76.97;99607.56;1656388;84;27410;-74
2022/02/16 07:56:48;;;;;;;78.65;39.35;;;;;;;6.45;76.43;99604.69;1675476;84;25733;-73
2022/02/16 07:59:14;;;;;;;82.35;41.40;;;;;;;6.88;75.62;99607.05;1693493;83;25593;-74
2022/02/16 08:01:41;;;;;;;72.27;40.00;;;;;;;7.32;73.94;99606.13;1677976;84;25663;-74
2022/02/16 08:04:16;;;;;;;79.42;42.27;;;;;;;7.65;74.01;99600.52;1700083;84;25699;-75
2022/02/16 08:06:45;;;;;;;80.97;42.58;;;;;;;8.00;73.39;99598.02;1695483;84;27902;-74
2022/02/16 08:09:13;;;;;;;76.40;37.55;;;;;;;8.06;71.58;99594.67;1662050;84;25581;-75
2022/02/16 08:11:41;;;;;;;72.10;38.08;;;;;;;8.14;71.65;99582.59;1700037;84;25711;-75
2022/02/16 08:14:07;;;;;;;73.33;35.03;;;;;;;8.44;71.80;99592.32;1692385;84;25623;-75
2022/02/16 08:16:35;;;;;;;75.97;36.75;;;;;;;8.66;70.72;99584.70;1684254;84;25650;-74
2022/02/16 08:19:05;;;;;;;70.57;34.33;;;;;;;8.75;69.35;99580.67;1688189;84;27106;-75
2022/02/16 08:21:31;;;;;;;73.67;39.95;;;;;;;8.96;67.83;99580.33;1701496;84;25840;-74
2022/02/16 08:23:58;;;;;;;72.37;41.65;;;;;;;8.96;67.66;99570.10;1697060;84;25567;-76
2022/02/16 08:26:25;;;;;;;76.17;40.35;;;;;;;9.32;69.50;99569.01;1687602;84;26360;-75
2022/02/16 08:28:51;;;;;;;73.57;38.98;;;;;;;9.51;68.98;99564.06;1677612;85;25578;-74
2022/02/16 08:31:17;;;;;;;63.28;33.10;;;;;;;9.67;65.74;99552.23;1699207;84;27326;-75
2022/02/16 08:33:44;;;;;;;65.10;35.63;;;;;;;9.71;67.11;99561.27;1695122;84;25560;-74
2022/02/16 08:36:12;;;;;;;61.83;32.25;;;;;;;9.68;66.07;99557.06;1693115;84;25727;-76
2022/02/16 08:38:40;;;;;;;62.43;31.87;;;;;;;9.60;64.40;99561.34;1683108;84;26149;-74
2022/02/16 08:41:08;;;;;;;61.58;32.70;;;;;;;9.59;64.20;99553.59;1662375;86;25655;-75
2022/02/16 08:43:35;;;;;;;59.77;33.13;;;;;;;9.45;62.74;99543.77;1696427;83;27389;-74
2022/02/16 08:46:01;;;;;;;54.18;31.33;;;;;;;9.38;64.65;99542.64;1693777;84;25654;-73
2022/02/16 08:48:28;;;;;;;58.42;31.95;;;;;;;9.50;63.88;99536.84;1692237;84;25435;-74
2022/02/16 08:50:57;;;;;;;63.28;37.30;;;;;;;9.56;62.96;99535.33;1695045;84;26187;-75
2022/02/16 08:53:26;;;;;;;61.37;37.83;;;;;;;9.65;63.86;99542.31;1682764;84;25416;-74
2022/02/16 08:55:54;;;;;;;70.25;38.85;;;;;;;9.69;61.78;99535.14;1693873;84;27423;-74
2022/02/16 08:58:21;;;;;;;64.85;35.52;;;;;;;9.70;61.84;99529.17;1685714;84;25265;-75
2022/02/16 09:00:49;;;;;;;59.03;31.57;;;;;;;9.87;64.16;99516.18;1695007;84;25705;-75
2022/02/16 09:03:18;;;;;;;48.65;27.10;;;;;;;10.19;63.89;99515.35;1691628;84;25724;-76
2022/02/16 09:05:46;;;;;;;57.85;30.32;;;;;;;10.57;63.41;99519.41;1694306;84;25750;-76
2022/02/16 09:08:14;;;;;;;54.27;29.95;;;;;;;10.68;58.47;99512.27;1686964;84;27325;-77
2022/02/16 09:10:41;;;;;;;50.85;30.60;;;;;;;10.68;60.89;99498.73;1679569;85;25648;-76
2022/02/16 09:13:08;;;;;;;52.67;29.55;;;;;;;10.74;58.30;99488.72;1691788;84;25725;-76
2022/02/16 09:15:34;;;;;;;58.50;29.60;;;;;;;10.87;59.53;99485.53;1691998;84;25704;-76
2022/02/16 09:18:01;;;;;;;46.00;28.05;;;;;;;11.23;60.72;99477.92;1690130;84;25687;-76
2022/02/16 09:20:28;;;;;;;40.85;24.45;;;;;;;11.42;60.02;99469.29;1692303;84;27325;-76
2022/02/16 09:22:55;;;;;;;50.50;29.75;;;;;;;11.57;58.48;99469.43;1670879;84;26098;-77
2022/02/16 09:25:21;;;;;;;38.15;24.98;;;;;;;11.56;57.65;99463.80;1670983;85;25649;-75
2022/02/16 09:27:48;;;;;;;46.33;28.52;;;;;;;11.73;57.07;99464.72;1742922;81;26388;-74
2022/02/16 09:30:18;;;;;;;40.40;23.95;;;;;;;11.86;57.37;99461.47;1686967;83;25379;-73
2022/02/16 09:32:45;;;;;;;109.52;100.15;;;;;;;11.97;54.24;99458.58;1734692;82;27334;-74
2022/02/16 09:35:11;;;;;;;107.75;98.62;;;;;;;12.24;50.76;99472.56;1720491;82;25834;-73
2022/02/16 09:37:38;;;;;;;104.80;96.02;;;;;;;12.30;53.37;99467.15;1724642;82;25791;-74
2022/02/16 09:40:06;;;;;;;50.45;43.60;;;;;;;12.31;50.65;99470.09;1740285;82;26135;-74
2022/02/16 09:42:32;;;;;;;35.40;19.77;;;;;;;12.40;51.61;99471.33;1728564;82;25659;-74
2022/02/16 09:45:05;;;;;;;44.53;33.60;;;;;;;12.59;51.81;99457.16;1725525;82;27323;-74
2022/02/16 09:47:34;;;;;;;102.35;93.75;;;;;;;12.78;51.19;99461.98;1723052;83;25549;-73
2022/02/16 09:50:04;;;;;;;104.32;95.32;;;;;;;12.71;50.91;99438.91;1722487;82;25706;-73
2022/02/16 09:52:31;;;;;;;100.90;92.53;;;;;;;12.89;50.95;99440.80;1727384;82;25662;-75
2022/02/16 09:54:58;;;;;;;79.30;72.05;;;;;;;13.12;49.46;99438.10;1710412;81;25605;-74
2022/02/16 09:57:27;;;;;;;100.97;92.82;;;;;;;13.29;48.00;99436.42;1719995;83;27330;-75
2022/02/16 09:59:55;;;;;;;35.68;19.62;;;;;;;13.60;48.82;99417.25;1701408;83;25729;-73
2022/02/16 10:02:21;;;;;;;33.15;18.80;;;;;;;14.24;49.20;99428.08;1732733;82;25649;-73
2022/02/16 10:04:57;;;;;;;34.23;20.08;;;;;;;14.71;48.87;99417.06;1705509;83;25828;-73
2022/02/16 10:07:37;;;;;;;35.73;20.77;;;;;;;15.12;49.19;99409.88;1744567;82;25610;-73
2022/02/16 10:10:23;;;;;;;30.52;18.70;;;;;;;15.61;45.45;99413.27;1699387;82;27338;-74
2022/02/16 10:12:53;;;;;;;26.85;17.77;;;;;;;15.90;43.12;99397.38;1653816;86;25466;-74
2022/02/16 10:15:40;;;;;;;29.87;17.32;;;;;;;15.90;40.30;99405.55;1651334;86;25828;-74
2022/02/16 10:18:14;;;;;;;27.90;17.05;;;;;;;15.93;42.37;99386.33;1684670;84;25829;-74
2022/02/16 10:20:43;;;;;;;27.05;16.60;;;;;;;16.18;40.99;99388.05;1642265;86;25819;-73
2022/02/16 10:23:10;;;;;;;26.37;17.77;;;;;;;16.49;39.52;99375.97;1670229;84;27986;-73
2022/02/16 10:25:37;;;;;;;26.37;17.15;;;;;;;16.37;38.98;99371.53;1627683;88;25866;-75
2022/02/16 10:28:17;;;;;;;23.60;14.98;;;;;;;16.53;40.91;99363.73;1640918;87;25824;-74
2022/02/16 10:31:08;;;;;;;22.85;14.80;;;;;;;16.74;35.32;99365.95;1643357;86;26214;-74
2022/02/16 10:33:47;;;;;;;20.30;14.03;;;;;;;16.60;38.38;99366.54;1662946;84;25532;-73
2022/02/16 10:36:22;;;;;;;20.05;13.58;;;;;;;16.79;37.57;99359.56;1623783;87;27336;-74
2022/02/16 10:39:06;;;;;;;24.37;15.10;;;;;;;16.89;38.05;99354.05;1625915;87;26373;-74
2022/02/16 10:41:53;;;;;;;20.57;14.07;;;;;;;17.05;37.85;99340.73;1625113;87;25881;-75
2022/02/16 10:44:31;;;;;;;20.05;12.88;;;;;;;17.14;35.08;99348.81;1610345;87;25866;-73
2022/02/16 10:47:08;;;;;;;21.30;13.62;;;;;;;16.88;35.81;99338.03;1649808;86;25720;-74
2022/02/16 10:49:38;;;;;;;21.55;13.60;;;;;;;16.90;37.13;99317.36;1666249;84;27441;-73
2022/02/16 10:52:18;;;;;;;18.30;12.85;;;;;;;17.28;36.14;99314.58;1732660;82;25652;-74
2022/02/16 10:55:07;;;;;;;19.85;12.88;;;;;;;17.21;34.44;99304.96;1737313;82;25298;-74
2022/02/16 10:57:34;;;;;;;18.50;12.35;;;;;;;17.20;33.75;99304.74;1725381;82;25871;-75
2022/02/16 11:00:00;;;;;;;18.75;11.68;;;;;;;16.64;35.14;99297.77;1749911;82;25689;-76
2022/02/16 11:02:31;;;;;;;25.70;23.00;;;;;;;16.57;36.51;99281.32;1735493;82;27343;-74
2022/02/16 11:04:59;;;;;;;18.32;11.57;;;;;;;16.77;36.44;99280.53;1712006;82;25783;-74
2022/02/16 11:07:26;;;;;;;20.43;11.43;;;;;;;16.71;34.60;99277.36;1712583;82;25762;-73
2022/02/16 11:09:58;;;;;;;16.15;11.57;;;;;;;16.41;36.71;99280.96;1747588;82;25740;-74
2022/02/16 11:12:26;;;;;;;15.95;11.33;;;;;;;16.30;36.07;99262.89;1738994;82;25698;-74
2022/02/16 11:14:53;;;;;;;17.73;11.85;;;;;;;16.09;36.80;99264.22;1738751;82;27431;-74
2022/02/16 11:17:24;;;;;;;16.75;10.23;;;;;;;15.75;36.43;99261.97;1700899;83;25684;-74
2022/02/16 11:20:12;;;;;;;17.75;10.68;;;;;;;15.81;36.98;99256.44;1744568;82;25671;-74
2022/02/16 11:22:50;;;;;;;16.60;10.93;;;;;;;15.80;37.00;99250.21;1725259;81;26287;-74
2022/02/16 11:25:40;;;;;;;16.93;10.78;;;;;;;15.92;36.55;99231.47;1715989;82;25603;-73
2022/02/16 11:28:12;;;;;;;17.82;10.93;;;;;;;15.59;33.66;99252.02;1710902;82;28085;-73